sensor_id;sensor_type;location;lat;lon;timestamp;P1;durP1;ratioP1;P2;durP2;ratioP2
29006;SDS011;16104;48.642;9.008;2023-05-15T01:02:20;5.85;;;4.65;;
29006;SDS011;16104;48.642;9.008;2023-05-15T01:07:17;4.75;;;4.30;;
29006;SDS011;16104;48.642;9.008;2023-05-15T01:12:13;5.50;;;4.85;;
29006;SDS011;16104;48.642;9.008;2023-05-15T02:02:58;5.35;;;4.18;;
29006;SDS011;16104;48.642;9.008;2023-05-15T02:07:55;5.15;;;4.43;;
29006;SDS011;16104;48.642;9.008;2023-05-15T02:12:51;5.15;;;4.60;;
29006;SDS011;16104;48.642;9.008;2023-05-15T03:03:36;5.28;;;4.32;;
29006;SDS011;16104;48.642;9.008;2023-05-15T03:08:32;5.78;;;4.90;;
29006;SDS011;16104;48.642;9.008;2023-05-15T03:13:27;7.57;;;5.30;;
29006;SDS011;16104;48.642;9.008;2023-05-15T03:18:23;6.57;;;4.35;;
29006;SDS011;16104;48.642;9.008;2023-05-15T03:23:18;5.32;;;4.47;;
29006;SDS011;16104;48.642;9.008;2023-05-15T03:28:14;7.72;;;4.82;;
29006;SDS011;16104;48.642;9.008;2023-05-15T03:33:10;7.03;;;4.43;;
29006;SDS011;16104;48.642;9.008;2023-05-15T03:38:05;7.93;;;4.88;;
29006;SDS011;16104;48.642;9.008;2023-05-15T03:43:01;5.65;;;4.68;;
29006;SDS011;16104;48.642;9.008;2023-05-15T03:47:57;4.85;;;4.35;;
29006;SDS011;16104;48.642;9.008;2023-05-15T03:52:52;6.25;;;4.45;;
29006;SDS011;16104;48.642;9.008;2023-05-15T03:57:48;8.00;;;5.20;;
29006;SDS011;16104;48.642;9.008;2023-05-15T04:02:43;5.15;;;4.63;;
29006;SDS011;16104;48.642;9.008;2023-05-15T04:07:39;5.35;;;4.38;;
29006;SDS011;16104;48.642;9.008;2023-05-15T04:12:34;5.63;;;4.80;;
29006;SDS011;16104;48.642;9.008;2023-05-15T04:17:30;8.05;;;5.07;;
29006;SDS011;16104;48.642;9.008;2023-05-15T04:22:25;4.65;;;4.22;;
29006;SDS011;16104;48.642;9.008;2023-05-15T04:27:21;8.43;;;5.05;;
29006;SDS011;16104;48.642;9.008;2023-05-15T04:32:17;8.77;;;5.07;;
29006;SDS011;16104;48.642;9.008;2023-05-15T04:37:12;7.82;;;5.50;;
29006;SDS011;16104;48.642;9.008;2023-05-15T04:42:08;7.10;;;5.28;;
29006;SDS011;16104;48.642;9.008;2023-05-15T04:47:03;6.85;;;5.40;;
29006;SDS011;16104;48.642;9.008;2023-05-15T04:51:59;5.82;;;5.20;;
29006;SDS011;16104;48.642;9.008;2023-05-15T04:56:55;7.85;;;4.70;;
29006;SDS011;16104;48.642;9.008;2023-05-15T05:01:51;7.10;;;4.38;;
29006;SDS011;16104;48.642;9.008;2023-05-15T05:06:47;5.32;;;4.32;;
29006;SDS011;16104;48.642;9.008;2023-05-15T05:11:42;5.22;;;4.07;;
29006;SDS011;16104;48.642;9.008;2023-05-15T05:16:38;5.32;;;4.70;;
29006;SDS011;16104;48.642;9.008;2023-05-15T05:21:34;5.30;;;4.57;;
29006;SDS011;16104;48.642;9.008;2023-05-15T05:26:29;5.47;;;4.93;;
29006;SDS011;16104;48.642;9.008;2023-05-15T05:31:25;5.55;;;4.95;;
29006;SDS011;16104;48.642;9.008;2023-05-15T05:36:20;6.38;;;4.68;;
29006;SDS011;16104;48.642;9.008;2023-05-15T05:41:16;4.80;;;4.30;;
29006;SDS011;16104;48.642;9.008;2023-05-15T05:46:12;5.93;;;5.30;;
29006;SDS011;16104;48.642;9.008;2023-05-15T05:51:07;5.55;;;4.55;;
29006;SDS011;16104;48.642;9.008;2023-05-15T05:56:03;5.00;;;4.50;;
29006;SDS011;16104;48.642;9.008;2023-05-15T06:00:58;5.97;;;4.80;;
29006;SDS011;16104;48.642;9.008;2023-05-15T06:05:54;7.50;;;4.90;;
29006;SDS011;16104;48.642;9.008;2023-05-15T06:10:51;6.93;;;5.10;;
29006;SDS011;16104;48.642;9.008;2023-05-15T06:15:46;5.75;;;5.15;;
29006;SDS011;16104;48.642;9.008;2023-05-15T06:20:42;7.93;;;4.78;;
29006;SDS011;16104;48.642;9.008;2023-05-15T06:25:37;5.78;;;4.93;;
29006;SDS011;16104;48.642;9.008;2023-05-15T06:30:33;5.32;;;4.82;;
29006;SDS011;16104;48.642;9.008;2023-05-15T06:35:29;5.90;;;5.35;;
29006;SDS011;16104;48.642;9.008;2023-05-15T06:40:24;5.25;;;4.75;;
29006;SDS011;16104;48.642;9.008;2023-05-15T06:45:19;6.45;;;5.18;;
29006;SDS011;16104;48.642;9.008;2023-05-15T06:50:15;6.03;;;5.28;;
29006;SDS011;16104;48.642;9.008;2023-05-15T06:55:10;6.07;;;5.47;;
29006;SDS011;16104;48.642;9.008;2023-05-15T07:00:06;7.25;;;5.80;;
29006;SDS011;16104;48.642;9.008;2023-05-15T07:05:02;6.68;;;5.57;;
29006;SDS011;16104;48.642;9.008;2023-05-15T07:09:58;7.82;;;5.80;;
29006;SDS011;16104;48.642;9.008;2023-05-15T07:14:53;5.95;;;5.30;;
29006;SDS011;16104;48.642;9.008;2023-05-15T07:19:48;7.65;;;5.93;;
29006;SDS011;16104;48.642;9.008;2023-05-15T07:24:44;8.10;;;5.53;;
29006;SDS011;16104;48.642;9.008;2023-05-15T07:29:40;6.00;;;5.30;;
29006;SDS011;16104;48.642;9.008;2023-05-15T07:34:35;7.00;;;4.95;;
29006;SDS011;16104;48.642;9.008;2023-05-15T07:39:30;3.88;;;3.58;;
29006;SDS011;16104;48.642;9.008;2023-05-15T07:44:26;4.72;;;4.32;;
29006;SDS011;16104;48.642;9.008;2023-05-15T07:49:21;4.47;;;4.07;;
29006;SDS011;16104;48.642;9.008;2023-05-15T07:54:17;5.13;;;4.10;;
29006;SDS011;16104;48.642;9.008;2023-05-15T07:59:12;4.43;;;3.90;;
29006;SDS011;16104;48.642;9.008;2023-05-15T08:04:08;5.53;;;3.53;;
29006;SDS011;16104;48.642;9.008;2023-05-15T08:09:04;3.90;;;3.45;;
29006;SDS011;16104;48.642;9.008;2023-05-15T08:13:59;3.70;;;3.40;;
29006;SDS011;16104;48.642;9.008;2023-05-15T08:18:55;3.80;;;3.50;;
29006;SDS011;16104;48.642;9.008;2023-05-15T08:23:55;3.50;;;3.10;;
29006;SDS011;16104;48.642;9.008;2023-05-15T08:28:51;4.18;;;3.45;;
29006;SDS011;16104;48.642;9.008;2023-05-15T08:33:46;6.78;;;3.15;;
29006;SDS011;16104;48.642;9.008;2023-05-15T08:38:42;4.07;;;3.30;;
29006;SDS011;16104;48.642;9.008;2023-05-15T08:43:37;4.13;;;3.17;;
29006;SDS011;16104;48.642;9.008;2023-05-15T08:48:35;3.30;;;3.00;;
29006;SDS011;16104;48.642;9.008;2023-05-15T08:53:32;4.32;;;3.60;;
29006;SDS011;16104;48.642;9.008;2023-05-15T08:58:27;4.65;;;3.47;;
29006;SDS011;16104;48.642;9.008;2023-05-15T09:03:23;4.38;;;3.78;;
29006;SDS011;16104;48.642;9.008;2023-05-15T09:08:20;3.67;;;3.38;;
29006;SDS011;16104;48.642;9.008;2023-05-15T09:13:17;4.68;;;4.15;;
29006;SDS011;16104;48.642;9.008;2023-05-15T09:18:13;3.65;;;3.30;;
29006;SDS011;16104;48.642;9.008;2023-05-15T09:23:23;3.90;;;3.28;;
29006;SDS011;16104;48.642;9.008;2023-05-15T09:28:24;5.03;;;3.70;;
29006;SDS011;16104;48.642;9.008;2023-05-15T09:33:26;7.03;;;3.70;;
29006;SDS011;16104;48.642;9.008;2023-05-15T09:38:22;7.85;;;4.28;;
29006;SDS011;16104;48.642;9.008;2023-05-15T09:43:18;6.10;;;3.53;;
29006;SDS011;16104;48.642;9.008;2023-05-15T09:48:13;6.80;;;3.70;;
29006;SDS011;16104;48.642;9.008;2023-05-15T09:53:11;5.47;;;4.00;;
29006;SDS011;16104;48.642;9.008;2023-05-15T09:58:11;8.68;;;4.18;;
29006;SDS011;16104;48.642;9.008;2023-05-15T10:03:08;4.85;;;3.80;;
29006;SDS011;16104;48.642;9.008;2023-05-15T10:08:05;3.90;;;3.35;;
29006;SDS011;16104;48.642;9.008;2023-05-15T10:13:01;4.05;;;3.65;;
29006;SDS011;16104;48.642;9.008;2023-05-15T10:17:59;4.15;;;3.63;;
29006;SDS011;16104;48.642;9.008;2023-05-15T10:22:58;4.65;;;3.88;;
29006;SDS011;16104;48.642;9.008;2023-05-15T10:27:57;6.90;;;3.63;;
29006;SDS011;16104;48.642;9.008;2023-05-15T10:32:52;4.15;;;3.75;;
29006;SDS011;16104;48.642;9.008;2023-05-15T10:37:49;12.23;;;3.47;;
29006;SDS011;16104;48.642;9.008;2023-05-15T10:42:45;4.43;;;3.25;;
29006;SDS011;16104;48.642;9.008;2023-05-15T10:47:44;4.43;;;2.90;;
29006;SDS011;16104;48.642;9.008;2023-05-15T10:52:42;3.40;;;2.97;;
29006;SDS011;16104;48.642;9.008;2023-05-15T10:57:37;3.20;;;2.88;;
29006;SDS011;16104;48.642;9.008;2023-05-15T11:02:37;2.60;;;2.40;;
29006;SDS011;16104;48.642;9.008;2023-05-15T11:12:53;3.85;;;2.33;;
29006;SDS011;16104;48.642;9.008;2023-05-15T11:18:02;2.00;;;1.90;;
29006;SDS011;16104;48.642;9.008;2023-05-15T11:22:59;4.57;;;2.30;;
29006;SDS011;16104;48.642;9.008;2023-05-15T11:27:54;3.72;;;2.17;;
29006;SDS011;16104;48.642;9.008;2023-05-15T11:32:51;2.50;;;2.30;;
29006;SDS011;16104;48.642;9.008;2023-05-15T11:48:13;1.77;;;1.52;;
29006;SDS011;16104;48.642;9.008;2023-05-15T11:53:10;3.15;;;2.60;;
29006;SDS011;16104;48.642;9.008;2023-05-15T11:58:10;2.45;;;2.22;;
29006;SDS011;16104;48.642;9.008;2023-05-15T12:03:13;2.33;;;2.08;;
29006;SDS011;16104;48.642;9.008;2023-05-15T12:08:18;3.35;;;2.85;;
29006;SDS011;16104;48.642;9.008;2023-05-15T12:13:17;3.47;;;2.80;;
29006;SDS011;16104;48.642;9.008;2023-05-15T12:18:13;3.03;;;2.65;;
29006;SDS011;16104;48.642;9.008;2023-05-15T12:23:08;4.22;;;2.90;;
29006;SDS011;16104;48.642;9.008;2023-05-15T12:28:04;4.05;;;2.85;;
29006;SDS011;16104;48.642;9.008;2023-05-15T12:33:03;3.35;;;2.50;;
29006;SDS011;16104;48.642;9.008;2023-05-15T12:38:04;3.20;;;2.90;;
29006;SDS011;16104;48.642;9.008;2023-05-15T12:43:03;2.70;;;2.50;;
29006;SDS011;16104;48.642;9.008;2023-05-15T12:48:01;4.18;;;2.58;;
29006;SDS011;16104;48.642;9.008;2023-05-15T12:53:01;3.10;;;2.50;;
29006;SDS011;16104;48.642;9.008;2023-05-15T12:57:59;4.00;;;2.97;;
29006;SDS011;16104;48.642;9.008;2023-05-15T13:03:01;10.30;;;4.78;;
29006;SDS011;16104;48.642;9.008;2023-05-15T13:07:58;6.25;;;3.08;;
29006;SDS011;16104;48.642;9.008;2023-05-15T13:12:55;3.92;;;3.10;;
29006;SDS011;16104;48.642;9.008;2023-05-15T13:17:52;3.30;;;3.00;;
29006;SDS011;16104;48.642;9.008;2023-05-15T13:22:50;3.23;;;2.70;;
29006;SDS011;16104;48.642;9.008;2023-05-15T13:27:48;4.15;;;2.65;;
29006;SDS011;16104;48.642;9.008;2023-05-15T13:32:44;5.90;;;2.72;;
29006;SDS011;16104;48.642;9.008;2023-05-15T13:37:40;3.30;;;3.00;;
29006;SDS011;16104;48.642;9.008;2023-05-15T13:42:37;2.80;;;2.60;;
29006;SDS011;16104;48.642;9.008;2023-05-15T13:47:36;3.42;;;2.95;;
29006;SDS011;16104;48.642;9.008;2023-05-15T13:52:35;2.60;;;2.40;;
29006;SDS011;16104;48.642;9.008;2023-05-15T13:57:31;2.72;;;2.45;;
29006;SDS011;16104;48.642;9.008;2023-05-15T14:02:26;2.90;;;2.53;;
29006;SDS011;16104;48.642;9.008;2023-05-15T14:07:22;3.97;;;2.13;;
29006;SDS011;16104;48.642;9.008;2023-05-15T14:12:18;2.10;;;2.00;;
29006;SDS011;16104;48.642;9.008;2023-05-15T14:17:15;2.92;;;1.98;;
29006;SDS011;16104;48.642;9.008;2023-05-15T14:22:10;2.70;;;2.00;;
29006;SDS011;16104;48.642;9.008;2023-05-15T14:27:06;2.58;;;2.05;;
29006;SDS011;16104;48.642;9.008;2023-05-15T14:32:02;2.42;;;2.22;;
29006;SDS011;16104;48.642;9.008;2023-05-15T14:36:58;4.80;;;1.95;;
29006;SDS011;16104;48.642;9.008;2023-05-15T14:41:53;2.50;;;2.20;;
29006;SDS011;16104;48.642;9.008;2023-05-15T14:47:03;2.85;;;2.13;;
29006;SDS011;16104;48.642;9.008;2023-05-15T14:52:04;3.05;;;2.03;;
29006;SDS011;16104;48.642;9.008;2023-05-15T14:57:01;2.33;;;2.13;;
29006;SDS011;16104;48.642;9.008;2023-05-15T15:01:57;3.28;;;2.33;;
29006;SDS011;16104;48.642;9.008;2023-05-15T15:06:53;2.72;;;2.20;;
29006;SDS011;16104;48.642;9.008;2023-05-15T15:11:51;1.92;;;1.83;;
29006;SDS011;16104;48.642;9.008;2023-05-15T15:16:47;6.95;;;2.30;;
29006;SDS011;16104;48.642;9.008;2023-05-15T15:21:42;2.30;;;2.10;;
29006;SDS011;16104;48.642;9.008;2023-05-15T15:26:38;2.40;;;2.10;;
29006;SDS011;16104;48.642;9.008;2023-05-15T15:31:35;3.28;;;1.52;;
29006;SDS011;16104;48.642;9.008;2023-05-15T15:36:30;2.60;;;1.75;;
29006;SDS011;16104;48.642;9.008;2023-05-15T15:41:28;2.25;;;2.00;;
29006;SDS011;16104;48.642;9.008;2023-05-15T15:46:24;2.30;;;2.10;;
29006;SDS011;16104;48.642;9.008;2023-05-15T15:51:20;2.67;;;2.30;;
29006;SDS011;16104;48.642;9.008;2023-05-15T15:56:15;2.00;;;1.90;;
29006;SDS011;16104;48.642;9.008;2023-05-15T16:01:11;4.82;;;3.28;;
29006;SDS011;16104;48.642;9.008;2023-05-15T16:06:06;3.80;;;2.90;;
29006;SDS011;16104;48.642;9.008;2023-05-15T16:11:02;3.10;;;2.70;;
29006;SDS011;16104;48.642;9.008;2023-05-15T16:15:57;2.85;;;2.65;;
29006;SDS011;16104;48.642;9.008;2023-05-15T16:20:53;2.92;;;2.72;;
29006;SDS011;16104;48.642;9.008;2023-05-15T16:25:48;4.22;;;3.28;;
29006;SDS011;16104;48.642;9.008;2023-05-15T16:30:44;5.00;;;3.20;;
29006;SDS011;16104;48.642;9.008;2023-05-15T16:35:41;5.78;;;3.85;;
29006;SDS011;16104;48.642;9.008;2023-05-15T16:40:37;3.75;;;3.45;;
29006;SDS011;16104;48.642;9.008;2023-05-15T16:45:32;6.75;;;3.40;;
29006;SDS011;16104;48.642;9.008;2023-05-15T16:50:29;7.07;;;4.30;;
29006;SDS011;16104;48.642;9.008;2023-05-15T16:55:25;6.55;;;3.50;;
29006;SDS011;16104;48.642;9.008;2023-05-15T17:00:22;4.95;;;3.67;;
29006;SDS011;16104;48.642;9.008;2023-05-15T17:05:18;3.42;;;3.13;;
29006;SDS011;16104;48.642;9.008;2023-05-15T17:10:13;3.15;;;2.80;;
29006;SDS011;16104;48.642;9.008;2023-05-15T17:15:09;3.63;;;2.92;;
29006;SDS011;16104;48.642;9.008;2023-05-15T17:20:05;2.67;;;2.30;;
29006;SDS011;16104;48.642;9.008;2023-05-15T17:25:01;1.90;;;1.80;;
29006;SDS011;16104;48.642;9.008;2023-05-15T17:29:58;2.28;;;2.08;;
29006;SDS011;16104;48.642;9.008;2023-05-15T17:34:53;2.33;;;2.13;;
29006;SDS011;16104;48.642;9.008;2023-05-15T17:39:49;2.95;;;2.05;;
29006;SDS011;16104;48.642;9.008;2023-05-15T17:44:45;5.40;;;2.55;;
29006;SDS011;16104;48.642;9.008;2023-05-15T17:49:40;3.30;;;2.03;;
29006;SDS011;16104;48.642;9.008;2023-05-15T17:54:36;2.22;;;2.10;;
29006;SDS011;16104;48.642;9.008;2023-05-15T17:59:31;2.42;;;2.22;;
29006;SDS011;16104;48.642;9.008;2023-05-15T18:04:27;2.40;;;2.20;;
29006;SDS011;16104;48.642;9.008;2023-05-15T18:09:22;2.75;;;2.45;;
29006;SDS011;16104;48.642;9.008;2023-05-15T18:14:18;3.45;;;2.67;;
29006;SDS011;16104;48.642;9.008;2023-05-15T18:19:14;2.70;;;2.50;;
29006;SDS011;16104;48.642;9.008;2023-05-15T18:24:09;3.15;;;2.85;;
29006;SDS011;16104;48.642;9.008;2023-05-15T18:29:05;4.10;;;2.92;;
29006;SDS011;16104;48.642;9.008;2023-05-15T18:34:00;3.90;;;3.15;;
29006;SDS011;16104;48.642;9.008;2023-05-15T18:38:56;3.58;;;3.22;;
29006;SDS011;16104;48.642;9.008;2023-05-15T18:43:51;3.63;;;3.33;;
29006;SDS011;16104;48.642;9.008;2023-05-15T18:48:47;3.67;;;3.15;;
29006;SDS011;16104;48.642;9.008;2023-05-15T18:53:42;3.95;;;3.40;;
29006;SDS011;16104;48.642;9.008;2023-05-15T18:58:38;4.18;;;3.65;;
29006;SDS011;16104;48.642;9.008;2023-05-15T19:03:37;4.13;;;3.70;;
29006;SDS011;16104;48.642;9.008;2023-05-15T19:08:32;4.55;;;3.72;;
29006;SDS011;16104;48.642;9.008;2023-05-15T19:13:28;6.65;;;3.88;;
29006;SDS011;16104;48.642;9.008;2023-05-15T19:18:26;5.35;;;4.10;;
29006;SDS011;16104;48.642;9.008;2023-05-15T19:23:22;4.15;;;3.75;;
29006;SDS011;16104;48.642;9.008;2023-05-15T19:28:18;6.15;;;4.20;;
29006;SDS011;16104;48.642;9.008;2023-05-15T19:33:14;5.05;;;4.00;;
29006;SDS011;16104;48.642;9.008;2023-05-15T19:38:10;4.38;;;3.95;;
29006;SDS011;16104;48.642;9.008;2023-05-15T19:43:05;4.00;;;3.50;;
29006;SDS011;16104;48.642;9.008;2023-05-15T19:48:01;5.18;;;4.30;;
29006;SDS011;16104;48.642;9.008;2023-05-15T19:52:56;5.15;;;3.90;;
29006;SDS011;16104;48.642;9.008;2023-05-15T19:57:54;4.57;;;4.18;;
29006;SDS011;16104;48.642;9.008;2023-05-15T20:02:50;4.72;;;3.75;;
29006;SDS011;16104;48.642;9.008;2023-05-15T20:07:46;5.68;;;3.88;;
29006;SDS011;16104;48.642;9.008;2023-05-15T20:12:42;4.30;;;3.85;;
29006;SDS011;16104;48.642;9.008;2023-05-15T20:17:38;4.40;;;3.85;;
29006;SDS011;16104;48.642;9.008;2023-05-15T20:22:34;6.00;;;4.10;;
29006;SDS011;16104;48.642;9.008;2023-05-15T20:27:29;4.07;;;3.67;;
29006;SDS011;16104;48.642;9.008;2023-05-15T20:32:25;5.03;;;3.65;;
29006;SDS011;16104;48.642;9.008;2023-05-15T20:37:21;5.32;;;3.53;;
29006;SDS011;16104;48.642;9.008;2023-05-15T20:42:21;5.53;;;3.60;;
29006;SDS011;16104;48.642;9.008;2023-05-15T20:47:17;4.85;;;3.35;;
29006;SDS011;16104;48.642;9.008;2023-05-15T20:52:13;3.78;;;3.45;;
29006;SDS011;16104;48.642;9.008;2023-05-15T20:57:08;4.15;;;3.65;;
29006;SDS011;16104;48.642;9.008;2023-05-15T21:02:04;4.00;;;3.60;;
29006;SDS011;16104;48.642;9.008;2023-05-15T21:07:01;3.92;;;3.58;;
29006;SDS011;16104;48.642;9.008;2023-05-15T21:11:57;5.22;;;3.60;;
29006;SDS011;16104;48.642;9.008;2023-05-15T21:16:53;4.38;;;3.50;;
29006;SDS011;16104;48.642;9.008;2023-05-15T21:21:49;4.22;;;3.50;;
29006;SDS011;16104;48.642;9.008;2023-05-15T21:26:44;4.35;;;3.53;;
29006;SDS011;16104;48.642;9.008;2023-05-15T21:31:40;4.78;;;3.72;;
29006;SDS011;16104;48.642;9.008;2023-05-15T21:36:36;4.88;;;3.67;;
29006;SDS011;16104;48.642;9.008;2023-05-15T21:41:31;4.05;;;3.70;;
29006;SDS011;16104;48.642;9.008;2023-05-15T21:46:27;6.30;;;3.92;;
29006;SDS011;16104;48.642;9.008;2023-05-15T21:51:22;4.60;;;4.07;;
29006;SDS011;16104;48.642;9.008;2023-05-15T21:56:18;4.28;;;3.83;;
29006;SDS011;16104;48.642;9.008;2023-05-15T22:01:14;4.75;;;3.90;;
29006;SDS011;16104;48.642;9.008;2023-05-15T22:06:10;3.65;;;3.35;;
29006;SDS011;16104;48.642;9.008;2023-05-15T22:11:06;5.13;;;4.50;;
29006;SDS011;16104;48.642;9.008;2023-05-15T22:16:01;3.80;;;3.28;;
29006;SDS011;16104;48.642;9.008;2023-05-15T22:20:57;5.63;;;4.05;;
29006;SDS011;16104;48.642;9.008;2023-05-15T22:25:53;3.95;;;3.65;;
29006;SDS011;16104;48.642;9.008;2023-05-15T22:30:48;3.40;;;3.10;;
29006;SDS011;16104;48.642;9.008;2023-05-15T22:35:44;3.95;;;3.47;;
29006;SDS011;16104;48.642;9.008;2023-05-15T22:40:39;4.25;;;3.85;;
29006;SDS011;16104;48.642;9.008;2023-05-15T22:45:35;4.82;;;3.83;;
29006;SDS011;16104;48.642;9.008;2023-05-15T22:50:30;5.20;;;3.30;;
29006;SDS011;16104;48.642;9.008;2023-05-15T22:55:26;4.05;;;3.53;;
29006;SDS011;16104;48.642;9.008;2023-05-15T23:00:22;6.85;;;4.18;;
29006;SDS011;16104;48.642;9.008;2023-05-15T23:05:18;4.20;;;3.70;;
29006;SDS011;16104;48.642;9.008;2023-05-15T23:10:13;5.05;;;3.83;;
29006;SDS011;16104;48.642;9.008;2023-05-15T23:15:09;4.95;;;4.45;;
29006;SDS011;16104;48.642;9.008;2023-05-15T23:20:05;4.07;;;3.67;;
29006;SDS011;16104;48.642;9.008;2023-05-15T23:25:01;4.22;;;3.83;;
29006;SDS011;16104;48.642;9.008;2023-05-15T23:29:58;4.80;;;4.25;;
29006;SDS011;16104;48.642;9.008;2023-05-15T23:34:53;7.10;;;4.25;;
29006;SDS011;16104;48.642;9.008;2023-05-15T23:39:50;4.18;;;3.78;;
29006;SDS011;16104;48.642;9.008;2023-05-15T23:44:49;5.70;;;5.03;;
29006;SDS011;16104;48.642;9.008;2023-05-15T23:49:45;7.40;;;6.60;;
29006;SDS011;16104;48.642;9.008;2023-05-15T23:54:40;7.80;;;6.78;;
29006;SDS011;16104;48.642;9.008;2023-05-15T23:59:36;8.85;;;6.88;;
